Terminal Aerodrome Forecast
Issued by NWS

Home | Current Version | Previous Version | Text Only | Print | Product List | Glossary On
Versions: 1 2 3 4 5 6 7 8 9 10 11 12 13 14 15 16 17 18 19 20 21 22 23 24 25 26 27 28 29 30 31
000
FTUS46 KEKA 172330
TAFACV
TAF
KACV 172330Z 1800/1824 34011KT P6SM SCT250
     FM180300 31005KT 6SM BR BKN005
     FM180500 VRB05KT 1SM BR OVC004
     FM180900 VRB03KT 1/2SM -DZ FG OVC003
     FM181800 27008KT P6SM SCT002=

USA.gov is the U.S. government's official web portal to all federal, state and local government web resources and services.